sensor_id;sensor_type;location;lat;lon;timestamp;P1;durP1;ratioP1;P2;durP2;ratioP2
61254;SDS011;47128;47.530;8.584;2022-08-21T00:01:14;17.73;;;5.40;;
61254;SDS011;47128;47.530;8.584;2022-08-21T00:03:42;14.98;;;5.80;;
61254;SDS011;47128;47.530;8.584;2022-08-21T00:06:08;24.35;;;6.25;;
61254;SDS011;47128;47.530;8.584;2022-08-21T00:08:34;11.00;;;5.07;;
61254;SDS011;47128;47.530;8.584;2022-08-21T00:11:00;12.73;;;6.10;;
61254;SDS011;47128;47.530;8.584;2022-08-21T00:13:25;15.27;;;6.30;;
61254;SDS011;47128;47.530;8.584;2022-08-21T00:15:51;19.83;;;5.82;;
61254;SDS011;47128;47.530;8.584;2022-08-21T00:18:17;12.20;;;5.93;;
61254;SDS011;47128;47.530;8.584;2022-08-21T00:20:43;24.35;;;5.72;;
61254;SDS011;47128;47.530;8.584;2022-08-21T00:23:10;19.27;;;6.15;;
61254;SDS011;47128;47.530;8.584;2022-08-21T00:25:36;23.88;;;6.38;;
61254;SDS011;47128;47.530;8.584;2022-08-21T00:28:04;28.00;;;5.95;;
61254;SDS011;47128;47.530;8.584;2022-08-21T00:30:31;22.55;;;6.70;;
61254;SDS011;47128;47.530;8.584;2022-08-21T00:32:58;13.20;;;5.55;;
61254;SDS011;47128;47.530;8.584;2022-08-21T00:35:31;9.15;;;5.80;;
61254;SDS011;47128;47.530;8.584;2022-08-21T00:38:00;10.15;;;5.75;;
61254;SDS011;47128;47.530;8.584;2022-08-21T00:40:28;8.95;;;5.68;;
61254;SDS011;47128;47.530;8.584;2022-08-21T00:43:00;12.70;;;5.87;;
61254;SDS011;47128;47.530;8.584;2022-08-21T00:45:27;12.68;;;5.88;;
61254;SDS011;47128;47.530;8.584;2022-08-21T00:47:53;7.30;;;5.18;;
61254;SDS011;47128;47.530;8.584;2022-08-21T00:50:20;9.05;;;5.35;;
61254;SDS011;47128;47.530;8.584;2022-08-21T00:52:46;7.93;;;5.32;;
61254;SDS011;47128;47.530;8.584;2022-08-21T00:55:12;19.25;;;5.20;;
61254;SDS011;47128;47.530;8.584;2022-08-21T00:57:40;11.80;;;5.63;;
61254;SDS011;47128;47.530;8.584;2022-08-21T01:00:11;14.32;;;5.32;;
61254;SDS011;47128;47.530;8.584;2022-08-21T01:02:40;16.50;;;5.63;;
61254;SDS011;47128;47.530;8.584;2022-08-21T01:05:06;8.68;;;5.28;;
61254;SDS011;47128;47.530;8.584;2022-08-21T01:07:32;15.80;;;5.30;;
61254;SDS011;47128;47.530;8.584;2022-08-21T01:09:58;8.45;;;5.28;;
61254;SDS011;47128;47.530;8.584;2022-08-21T01:12:23;7.72;;;4.85;;
61254;SDS011;47128;47.530;8.584;2022-08-21T01:14:50;7.32;;;5.15;;
61254;SDS011;47128;47.530;8.584;2022-08-21T01:17:16;6.60;;;5.05;;
61254;SDS011;47128;47.530;8.584;2022-08-21T01:19:43;8.02;;;5.72;;
61254;SDS011;47128;47.530;8.584;2022-08-21T01:22:09;7.07;;;5.35;;
61254;SDS011;47128;47.530;8.584;2022-08-21T01:24:35;8.55;;;6.00;;
61254;SDS011;47128;47.530;8.584;2022-08-21T01:27:00;16.52;;;6.65;;
61254;SDS011;47128;47.530;8.584;2022-08-21T01:29:32;10.80;;;6.68;;
61254;SDS011;47128;47.530;8.584;2022-08-21T01:32:19;8.63;;;5.88;;
61254;SDS011;47128;47.530;8.584;2022-08-21T01:34:46;8.55;;;6.10;;
61254;SDS011;47128;47.530;8.584;2022-08-21T01:37:14;11.20;;;6.05;;
61254;SDS011;47128;47.530;8.584;2022-08-21T01:39:40;10.48;;;5.88;;
61254;SDS011;47128;47.530;8.584;2022-08-21T01:42:07;8.10;;;5.78;;
61254;SDS011;47128;47.530;8.584;2022-08-21T01:44:33;13.40;;;6.55;;
61254;SDS011;47128;47.530;8.584;2022-08-21T01:47:00;22.85;;;6.15;;
61254;SDS011;47128;47.530;8.584;2022-08-21T01:49:27;9.98;;;5.72;;
61254;SDS011;47128;47.530;8.584;2022-08-21T01:51:53;17.55;;;5.63;;
61254;SDS011;47128;47.530;8.584;2022-08-21T01:54:19;11.75;;;5.30;;
61254;SDS011;47128;47.530;8.584;2022-08-21T01:56:45;12.43;;;5.28;;
61254;SDS011;47128;47.530;8.584;2022-08-21T01:59:13;10.45;;;5.65;;
61254;SDS011;47128;47.530;8.584;2022-08-21T02:01:39;19.77;;;6.38;;
61254;SDS011;47128;47.530;8.584;2022-08-21T02:04:06;14.75;;;6.10;;
61254;SDS011;47128;47.530;8.584;2022-08-21T02:06:32;18.48;;;6.70;;
61254;SDS011;47128;47.530;8.584;2022-08-21T02:08:58;22.15;;;6.32;;
61254;SDS011;47128;47.530;8.584;2022-08-21T02:11:23;30.75;;;6.25;;
61254;SDS011;47128;47.530;8.584;2022-08-21T02:13:49;19.73;;;5.75;;
61254;SDS011;47128;47.530;8.584;2022-08-21T02:16:15;19.15;;;6.03;;
61254;SDS011;47128;47.530;8.584;2022-08-21T02:18:41;18.83;;;6.40;;
61254;SDS011;47128;47.530;8.584;2022-08-21T02:21:07;62.08;;;7.60;;
61254;SDS011;47128;47.530;8.584;2022-08-21T02:23:33;12.30;;;6.07;;
61254;SDS011;47128;47.530;8.584;2022-08-21T02:26:00;34.08;;;7.15;;
61254;SDS011;47128;47.530;8.584;2022-08-21T02:28:28;11.40;;;5.22;;
61254;SDS011;47128;47.530;8.584;2022-08-21T02:30:54;8.38;;;4.97;;
61254;SDS011;47128;47.530;8.584;2022-08-21T02:33:20;12.68;;;5.43;;
61254;SDS011;47128;47.530;8.584;2022-08-21T02:35:47;17.20;;;5.00;;
61254;SDS011;47128;47.530;8.584;2022-08-21T02:38:14;13.85;;;5.03;;
61254;SDS011;47128;47.530;8.584;2022-08-21T02:40:43;10.25;;;5.10;;
61254;SDS011;47128;47.530;8.584;2022-08-21T02:43:10;21.23;;;5.15;;
61254;SDS011;47128;47.530;8.584;2022-08-21T02:45:37;42.67;;;6.43;;
61254;SDS011;47128;47.530;8.584;2022-08-21T02:48:05;22.23;;;5.53;;
61254;SDS011;47128;47.530;8.584;2022-08-21T02:50:37;37.97;;;6.10;;
61254;SDS011;47128;47.530;8.584;2022-08-21T02:53:04;52.22;;;6.65;;
61254;SDS011;47128;47.530;8.584;2022-08-21T02:55:32;66.93;;;7.35;;
61254;SDS011;47128;47.530;8.584;2022-08-21T02:58:00;17.27;;;5.43;;
61254;SDS011;47128;47.530;8.584;2022-08-21T03:00:27;27.77;;;5.88;;
61254;SDS011;47128;47.530;8.584;2022-08-21T03:02:55;17.45;;;5.38;;
61254;SDS011;47128;47.530;8.584;2022-08-21T03:05:22;42.05;;;5.75;;
61254;SDS011;47128;47.530;8.584;2022-08-21T03:07:48;31.33;;;5.47;;
61254;SDS011;47128;47.530;8.584;2022-08-21T03:10:14;22.48;;;5.60;;
61254;SDS011;47128;47.530;8.584;2022-08-21T03:12:40;9.80;;;4.68;;
61254;SDS011;47128;47.530;8.584;2022-08-21T03:15:07;11.30;;;5.03;;
61254;SDS011;47128;47.530;8.584;2022-08-21T03:17:39;12.25;;;4.57;;
61254;SDS011;47128;47.530;8.584;2022-08-21T03:20:05;10.90;;;4.95;;
61254;SDS011;47128;47.530;8.584;2022-08-21T03:22:33;6.47;;;4.53;;
61254;SDS011;47128;47.530;8.584;2022-08-21T03:24:58;11.07;;;5.18;;
61254;SDS011;47128;47.530;8.584;2022-08-21T03:27:25;7.15;;;4.90;;
61254;SDS011;47128;47.530;8.584;2022-08-21T03:29:51;7.30;;;5.20;;
61254;SDS011;47128;47.530;8.584;2022-08-21T03:32:17;11.90;;;5.32;;
61254;SDS011;47128;47.530;8.584;2022-08-21T03:34:44;12.88;;;5.65;;
61254;SDS011;47128;47.530;8.584;2022-08-21T03:37:11;7.57;;;5.55;;
61254;SDS011;47128;47.530;8.584;2022-08-21T03:39:37;8.15;;;5.70;;
61254;SDS011;47128;47.530;8.584;2022-08-21T03:42:03;7.85;;;5.03;;
61254;SDS011;47128;47.530;8.584;2022-08-21T03:44:29;9.90;;;5.38;;
61254;SDS011;47128;47.530;8.584;2022-08-21T03:46:56;12.23;;;6.07;;
61254;SDS011;47128;47.530;8.584;2022-08-21T03:49:25;10.95;;;5.60;;
61254;SDS011;47128;47.530;8.584;2022-08-21T03:51:51;10.38;;;5.38;;
61254;SDS011;47128;47.530;8.584;2022-08-21T03:54:17;11.73;;;5.97;;
61254;SDS011;47128;47.530;8.584;2022-08-21T03:56:43;16.30;;;6.05;;
61254;SDS011;47128;47.530;8.584;2022-08-21T03:59:09;17.98;;;6.07;;
61254;SDS011;47128;47.530;8.584;2022-08-21T04:01:35;26.00;;;6.50;;
61254;SDS011;47128;47.530;8.584;2022-08-21T04:04:01;26.60;;;5.75;;
61254;SDS011;47128;47.530;8.584;2022-08-21T04:06:28;18.00;;;6.30;;
61254;SDS011;47128;47.530;8.584;2022-08-21T04:08:53;9.85;;;5.00;;
61254;SDS011;47128;47.530;8.584;2022-08-21T04:11:20;14.13;;;5.38;;
61254;SDS011;47128;47.530;8.584;2022-08-21T04:13:45;12.02;;;5.65;;
61254;SDS011;47128;47.530;8.584;2022-08-21T04:16:12;12.80;;;6.15;;
61254;SDS011;47128;47.530;8.584;2022-08-21T04:18:38;9.13;;;6.05;;
61254;SDS011;47128;47.530;8.584;2022-08-21T04:21:04;14.52;;;5.80;;
61254;SDS011;47128;47.530;8.584;2022-08-21T04:23:35;10.15;;;6.18;;
61254;SDS011;47128;47.530;8.584;2022-08-21T04:26:01;12.05;;;5.75;;
61254;SDS011;47128;47.530;8.584;2022-08-21T04:28:27;8.98;;;5.93;;
61254;SDS011;47128;47.530;8.584;2022-08-21T04:30:53;11.63;;;5.72;;
61254;SDS011;47128;47.530;8.584;2022-08-21T04:33:20;9.68;;;5.57;;
61254;SDS011;47128;47.530;8.584;2022-08-21T04:35:47;7.45;;;5.47;;
61254;SDS011;47128;47.530;8.584;2022-08-21T04:38:13;5.43;;;4.05;;
61254;SDS011;47128;47.530;8.584;2022-08-21T04:40:39;6.13;;;4.03;;
61254;SDS011;47128;47.530;8.584;2022-08-21T04:43:06;5.40;;;3.70;;
61254;SDS011;47128;47.530;8.584;2022-08-21T04:45:41;5.20;;;3.75;;
61254;SDS011;47128;47.530;8.584;2022-08-21T04:48:10;6.25;;;3.38;;
61254;SDS011;47128;47.530;8.584;2022-08-21T04:53:16;5.25;;;3.75;;
61254;SDS011;47128;47.530;8.584;2022-08-21T04:55:45;5.57;;;4.35;;
61254;SDS011;47128;47.530;8.584;2022-08-21T04:58:12;10.43;;;4.05;;
61254;SDS011;47128;47.530;8.584;2022-08-21T05:00:42;8.18;;;3.45;;
61254;SDS011;47128;47.530;8.584;2022-08-21T05:03:09;6.35;;;4.00;;
61254;SDS011;47128;47.530;8.584;2022-08-21T05:05:36;5.80;;;3.85;;
61254;SDS011;47128;47.530;8.584;2022-08-21T05:08:02;5.00;;;3.88;;
61254;SDS011;47128;47.530;8.584;2022-08-21T05:10:28;4.85;;;3.58;;
61254;SDS011;47128;47.530;8.584;2022-08-21T05:12:56;5.20;;;3.53;;
61254;SDS011;47128;47.530;8.584;2022-08-21T05:15:22;4.75;;;3.22;;
61254;SDS011;47128;47.530;8.584;2022-08-21T05:17:48;8.30;;;4.50;;
61254;SDS011;47128;47.530;8.584;2022-08-21T05:20:15;7.38;;;4.03;;
61254;SDS011;47128;47.530;8.584;2022-08-21T05:22:41;7.82;;;4.35;;
61254;SDS011;47128;47.530;8.584;2022-08-21T05:25:07;5.90;;;3.88;;
61254;SDS011;47128;47.530;8.584;2022-08-21T05:27:33;4.72;;;3.38;;
61254;SDS011;47128;47.530;8.584;2022-08-21T05:29:59;4.97;;;3.40;;
61254;SDS011;47128;47.530;8.584;2022-08-21T05:32:25;5.95;;;4.72;;
61254;SDS011;47128;47.530;8.584;2022-08-21T05:34:52;5.43;;;4.32;;
61254;SDS011;47128;47.530;8.584;2022-08-21T05:37:18;6.65;;;4.10;;
61254;SDS011;47128;47.530;8.584;2022-08-21T05:39:44;6.53;;;4.00;;
61254;SDS011;47128;47.530;8.584;2022-08-21T05:42:09;5.43;;;3.47;;
61254;SDS011;47128;47.530;8.584;2022-08-21T05:44:36;5.03;;;3.67;;
61254;SDS011;47128;47.530;8.584;2022-08-21T05:47:05;5.85;;;3.88;;
61254;SDS011;47128;47.530;8.584;2022-08-21T05:49:33;6.07;;;3.70;;
61254;SDS011;47128;47.530;8.584;2022-08-21T05:52:00;10.43;;;3.55;;
61254;SDS011;47128;47.530;8.584;2022-08-21T05:54:26;4.72;;;3.50;;
61254;SDS011;47128;47.530;8.584;2022-08-21T05:56:52;4.32;;;3.20;;
61254;SDS011;47128;47.530;8.584;2022-08-21T05:59:17;4.60;;;3.10;;
61254;SDS011;47128;47.530;8.584;2022-08-21T06:01:43;4.95;;;3.70;;
61254;SDS011;47128;47.530;8.584;2022-08-21T06:04:10;3.92;;;3.28;;
61254;SDS011;47128;47.530;8.584;2022-08-21T06:06:36;4.25;;;2.95;;
61254;SDS011;47128;47.530;8.584;2022-08-21T06:09:02;7.15;;;3.90;;
61254;SDS011;47128;47.530;8.584;2022-08-21T06:11:29;4.35;;;3.30;;
61254;SDS011;47128;47.530;8.584;2022-08-21T06:13:55;4.40;;;3.33;;
61254;SDS011;47128;47.530;8.584;2022-08-21T06:16:21;4.68;;;3.53;;
61254;SDS011;47128;47.530;8.584;2022-08-21T06:18:47;4.82;;;3.70;;
61254;SDS011;47128;47.530;8.584;2022-08-21T06:21:13;6.15;;;3.38;;
61254;SDS011;47128;47.530;8.584;2022-08-21T06:23:39;4.55;;;3.22;;
61254;SDS011;47128;47.530;8.584;2022-08-21T06:26:06;9.27;;;3.40;;
61254;SDS011;47128;47.530;8.584;2022-08-21T06:28:32;3.50;;;2.72;;
61254;SDS011;47128;47.530;8.584;2022-08-21T06:31:09;3.85;;;3.08;;
61254;SDS011;47128;47.530;8.584;2022-08-21T06:33:45;3.95;;;3.10;;
61254;SDS011;47128;47.530;8.584;2022-08-21T06:36:11;3.70;;;3.10;;
61254;SDS011;47128;47.530;8.584;2022-08-21T06:38:37;4.22;;;2.85;;
61254;SDS011;47128;47.530;8.584;2022-08-21T06:41:03;3.92;;;2.72;;
61254;SDS011;47128;47.530;8.584;2022-08-21T06:43:29;7.03;;;2.78;;
61254;SDS011;47128;47.530;8.584;2022-08-21T06:45:55;3.17;;;2.65;;
61254;SDS011;47128;47.530;8.584;2022-08-21T06:48:21;3.05;;;2.55;;
61254;SDS011;47128;47.530;8.584;2022-08-21T06:50:47;4.18;;;2.58;;
61254;SDS011;47128;47.530;8.584;2022-08-21T06:53:13;3.80;;;3.03;;
61254;SDS011;47128;47.530;8.584;2022-08-21T06:55:40;3.70;;;2.20;;
61254;SDS011;47128;47.530;8.584;2022-08-21T06:58:07;2.28;;;2.08;;
61254;SDS011;47128;47.530;8.584;2022-08-21T07:00:34;3.40;;;2.30;;
61254;SDS011;47128;47.530;8.584;2022-08-21T07:03:03;2.30;;;2.10;;
61254;SDS011;47128;47.530;8.584;2022-08-21T07:05:29;2.35;;;2.15;;
61254;SDS011;47128;47.530;8.584;2022-08-21T07:07:55;2.35;;;1.92;;
61254;SDS011;47128;47.530;8.584;2022-08-21T07:10:22;2.85;;;2.25;;
61254;SDS011;47128;47.530;8.584;2022-08-21T07:12:51;2.38;;;1.95;;
61254;SDS011;47128;47.530;8.584;2022-08-21T07:15:19;4.15;;;2.90;;
61254;SDS011;47128;47.530;8.584;2022-08-21T07:17:45;4.05;;;2.60;;
61254;SDS011;47128;47.530;8.584;2022-08-21T07:20:11;3.10;;;2.70;;
61254;SDS011;47128;47.530;8.584;2022-08-21T07:22:36;3.67;;;2.70;;
61254;SDS011;47128;47.530;8.584;2022-08-21T07:25:03;4.38;;;2.85;;
61254;SDS011;47128;47.530;8.584;2022-08-21T07:27:30;4.18;;;2.85;;
61254;SDS011;47128;47.530;8.584;2022-08-21T07:29:56;5.25;;;3.58;;
61254;SDS011;47128;47.530;8.584;2022-08-21T07:32:22;4.43;;;3.05;;
61254;SDS011;47128;47.530;8.584;2022-08-21T07:34:48;5.95;;;3.40;;
61254;SDS011;47128;47.530;8.584;2022-08-21T07:37:14;4.15;;;3.47;;
61254;SDS011;47128;47.530;8.584;2022-08-21T07:39:39;6.53;;;3.75;;
61254;SDS011;47128;47.530;8.584;2022-08-21T07:42:05;4.70;;;3.10;;
61254;SDS011;47128;47.530;8.584;2022-08-21T07:44:31;5.10;;;3.30;;
61254;SDS011;47128;47.530;8.584;2022-08-21T07:46:59;7.20;;;3.83;;
61254;SDS011;47128;47.530;8.584;2022-08-21T07:49:26;6.13;;;4.07;;
61254;SDS011;47128;47.530;8.584;2022-08-21T07:51:52;8.68;;;4.53;;
61254;SDS011;47128;47.530;8.584;2022-08-21T07:54:18;5.95;;;3.72;;
61254;SDS011;47128;47.530;8.584;2022-08-21T07:56:44;8.60;;;4.38;;
61254;SDS011;47128;47.530;8.584;2022-08-21T07:59:10;7.43;;;4.45;;
61254;SDS011;47128;47.530;8.584;2022-08-21T08:01:36;8.20;;;4.00;;
61254;SDS011;47128;47.530;8.584;2022-08-21T08:04:02;7.25;;;4.13;;
61254;SDS011;47128;47.530;8.584;2022-08-21T08:06:28;7.53;;;4.10;;
61254;SDS011;47128;47.530;8.584;2022-08-21T08:08:54;7.03;;;4.80;;
61254;SDS011;47128;47.530;8.584;2022-08-21T08:11:19;7.50;;;4.68;;
61254;SDS011;47128;47.530;8.584;2022-08-21T08:13:46;5.20;;;3.97;;
61254;SDS011;47128;47.530;8.584;2022-08-21T08:16:16;6.85;;;4.22;;
61254;SDS011;47128;47.530;8.584;2022-08-21T08:18:42;5.85;;;3.50;;
61254;SDS011;47128;47.530;8.584;2022-08-21T08:21:09;6.65;;;4.15;;
61254;SDS011;47128;47.530;8.584;2022-08-21T08:23:39;4.93;;;3.53;;
61254;SDS011;47128;47.530;8.584;2022-08-21T08:26:06;6.53;;;4.07;;
61254;SDS011;47128;47.530;8.584;2022-08-21T08:28:32;4.97;;;4.18;;
61254;SDS011;47128;47.530;8.584;2022-08-21T08:30:59;5.43;;;3.58;;
61254;SDS011;47128;47.530;8.584;2022-08-21T08:33:27;4.68;;;3.70;;
61254;SDS011;47128;47.530;8.584;2022-08-21T08:35:53;4.03;;;3.42;;
61254;SDS011;47128;47.530;8.584;2022-08-21T08:38:19;4.57;;;3.50;;
61254;SDS011;47128;47.530;8.584;2022-08-21T08:43:31;4.93;;;3.53;;
61254;SDS011;47128;47.530;8.584;2022-08-21T08:45:58;4.20;;;3.03;;
61254;SDS011;47128;47.530;8.584;2022-08-21T08:48:41;4.45;;;3.40;;
61254;SDS011;47128;47.530;8.584;2022-08-21T08:51:19;4.85;;;3.63;;
61254;SDS011;47128;47.530;8.584;2022-08-21T08:53:57;3.78;;;3.13;;
61254;SDS011;47128;47.530;8.584;2022-08-21T08:56:31;4.20;;;3.13;;
61254;SDS011;47128;47.530;8.584;2022-08-21T08:59:00;4.72;;;3.25;;
61254;SDS011;47128;47.530;8.584;2022-08-21T09:01:34;4.32;;;3.20;;
61254;SDS011;47128;47.530;8.584;2022-08-21T09:04:00;6.35;;;4.07;;
61254;SDS011;47128;47.530;8.584;2022-08-21T09:07:13;5.88;;;3.55;;
61254;SDS011;47128;47.530;8.584;2022-08-21T09:23:43;3.72;;;3.05;;
61254;SDS011;47128;47.530;8.584;2022-08-21T09:26:19;5.78;;;2.67;;
61254;SDS011;47128;47.530;8.584;2022-08-21T09:28:52;4.55;;;2.92;;
61254;SDS011;47128;47.530;8.584;2022-08-21T09:31:37;4.65;;;3.08;;
61254;SDS011;47128;47.530;8.584;2022-08-21T09:36:33;3.75;;;3.00;;
61254;SDS011;47128;47.530;8.584;2022-08-21T09:39:02;3.05;;;2.75;;
61254;SDS011;47128;47.530;8.584;2022-08-21T09:49:25;3.47;;;3.10;;
61254;SDS011;47128;47.530;8.584;2022-08-21T09:51:55;2.72;;;2.53;;
61254;SDS011;47128;47.530;8.584;2022-08-21T09:54:26;3.72;;;2.80;;
61254;SDS011;47128;47.530;8.584;2022-08-21T09:57:40;3.85;;;3.42;;
61254;SDS011;47128;47.530;8.584;2022-08-21T10:00:24;3.90;;;3.15;;
61254;SDS011;47128;47.530;8.584;2022-08-21T10:02:54;4.72;;;2.90;;
61254;SDS011;47128;47.530;8.584;2022-08-21T10:05:37;4.40;;;3.35;;
61254;SDS011;47128;47.530;8.584;2022-08-21T10:08:04;4.25;;;3.00;;
61254;SDS011;47128;47.530;8.584;2022-08-21T10:10:31;4.43;;;3.60;;
61254;SDS011;47128;47.530;8.584;2022-08-21T10:15:51;3.20;;;2.90;;
61254;SDS011;47128;47.530;8.584;2022-08-21T10:18:26;3.40;;;2.60;;
61254;SDS011;47128;47.530;8.584;2022-08-21T10:21:25;5.38;;;2.70;;
61254;SDS011;47128;47.530;8.584;2022-08-21T10:26:25;4.95;;;3.80;;
61254;SDS011;47128;47.530;8.584;2022-08-21T10:39:55;4.00;;;2.45;;
61254;SDS011;47128;47.530;8.584;2022-08-21T10:42:50;4.72;;;2.38;;
61254;SDS011;47128;47.530;8.584;2022-08-21T10:48:29;3.30;;;2.10;;
61254;SDS011;47128;47.530;8.584;2022-08-21T10:51:10;3.22;;;2.28;;
61254;SDS011;47128;47.530;8.584;2022-08-21T10:53:45;3.58;;;2.10;;
61254;SDS011;47128;47.530;8.584;2022-08-21T10:56:19;3.88;;;2.05;;
61254;SDS011;47128;47.530;8.584;2022-08-21T10:58:59;3.50;;;2.10;;
61254;SDS011;47128;47.530;8.584;2022-08-21T11:01:28;2.63;;;2.00;;
61254;SDS011;47128;47.530;8.584;2022-08-21T11:04:40;4.20;;;2.42;;
61254;SDS011;47128;47.530;8.584;2022-08-21T11:06:47;6.38;;;2.33;;
61254;SDS011;47128;47.530;8.584;2022-08-21T11:09:18;4.45;;;2.20;;
61254;SDS011;47128;47.530;8.584;2022-08-21T11:12:01;3.80;;;2.08;;
61254;SDS011;47128;47.530;8.584;2022-08-21T11:17:13;3.40;;;1.77;;
61254;SDS011;47128;47.530;8.584;2022-08-21T11:22:38;3.00;;;1.58;;
61254;SDS011;47128;47.530;8.584;2022-08-21T11:25:35;6.13;;;2.00;;
61254;SDS011;47128;47.530;8.584;2022-08-21T11:28:09;4.72;;;1.80;;
61254;SDS011;47128;47.530;8.584;2022-08-21T11:39:13;4.47;;;1.88;;
61254;SDS011;47128;47.530;8.584;2022-08-21T11:41:54;3.05;;;2.00;;
61254;SDS011;47128;47.530;8.584;2022-08-21T11:44:41;4.68;;;2.05;;
61254;SDS011;47128;47.530;8.584;2022-08-21T11:50:14;2.67;;;1.73;;
61254;SDS011;47128;47.530;8.584;2022-08-21T11:52:48;3.38;;;1.70;;
61254;SDS011;47128;47.530;8.584;2022-08-21T11:58:01;3.33;;;1.77;;
61254;SDS011;47128;47.530;8.584;2022-08-21T12:00:44;1.83;;;1.33;;
61254;SDS011;47128;47.530;8.584;2022-08-21T12:03:25;2.25;;;1.50;;
61254;SDS011;47128;47.530;8.584;2022-08-21T12:05:55;1.75;;;1.50;;
61254;SDS011;47128;47.530;8.584;2022-08-21T12:11:07;2.22;;;1.20;;
61254;SDS011;47128;47.530;8.584;2022-08-21T12:16:37;2.95;;;1.33;;
61254;SDS011;47128;47.530;8.584;2022-08-21T12:19:11;2.63;;;1.08;;
61254;SDS011;47128;47.530;8.584;2022-08-21T12:21:51;1.40;;;0.85;;
61254;SDS011;47128;47.530;8.584;2022-08-21T12:26:52;1.00;;;0.90;;
61254;SDS011;47128;47.530;8.584;2022-08-21T12:29:27;0.88;;;0.88;;
61254;SDS011;47128;47.530;8.584;2022-08-21T12:34:27;3.70;;;1.52;;
61254;SDS011;47128;47.530;8.584;2022-08-21T12:37:02;1.92;;;1.10;;
61254;SDS011;47128;47.530;8.584;2022-08-21T12:39:32;1.67;;;1.05;;
61254;SDS011;47128;47.530;8.584;2022-08-21T12:42:17;2.03;;;1.10;;
61254;SDS011;47128;47.530;8.584;2022-08-21T12:47:43;1.73;;;1.02;;
61254;SDS011;47128;47.530;8.584;2022-08-21T12:50:18;1.30;;;1.00;;
61254;SDS011;47128;47.530;8.584;2022-08-21T12:52:59;3.03;;;1.77;;
61254;SDS011;47128;47.530;8.584;2022-08-21T12:55:44;0.88;;;0.88;;
61254;SDS011;47128;47.530;8.584;2022-08-21T12:58:20;1.58;;;1.05;;
61254;SDS011;47128;47.530;8.584;2022-08-21T13:00:52;1.00;;;0.93;;
61254;SDS011;47128;47.530;8.584;2022-08-21T13:03:21;2.30;;;1.23;;
61254;SDS011;47128;47.530;8.584;2022-08-21T13:05:47;2.05;;;0.88;;
61254;SDS011;47128;47.530;8.584;2022-08-21T13:08:16;0.88;;;0.60;;
61254;SDS011;47128;47.530;8.584;2022-08-21T13:10:44;1.13;;;0.93;;
61254;SDS011;47128;47.530;8.584;2022-08-21T13:13:21;2.78;;;1.50;;
61254;SDS011;47128;47.530;8.584;2022-08-21T13:15:49;1.75;;;1.38;;
61254;SDS011;47128;47.530;8.584;2022-08-21T13:18:22;1.25;;;0.70;;
61254;SDS011;47128;47.530;8.584;2022-08-21T13:20:49;1.15;;;1.00;;
61254;SDS011;47128;47.530;8.584;2022-08-21T13:25:51;0.85;;;0.63;;
61254;SDS011;47128;47.530;8.584;2022-08-21T13:28:17;2.30;;;0.73;;
61254;SDS011;47128;47.530;8.584;2022-08-21T13:30:53;1.15;;;0.75;;
61254;SDS011;47128;47.530;8.584;2022-08-21T13:33:21;1.35;;;0.90;;
61254;SDS011;47128;47.530;8.584;2022-08-21T13:35:57;3.15;;;1.00;;
61254;SDS011;47128;47.530;8.584;2022-08-21T13:38:24;2.33;;;1.10;;
61254;SDS011;47128;47.530;8.584;2022-08-21T13:40:59;1.48;;;0.80;;
61254;SDS011;47128;47.530;8.584;2022-08-21T13:43:34;1.02;;;0.80;;
61254;SDS011;47128;47.530;8.584;2022-08-21T13:46:01;1.25;;;0.73;;
61254;SDS011;47128;47.530;8.584;2022-08-21T13:48:32;0.77;;;0.77;;
61254;SDS011;47128;47.530;8.584;2022-08-21T13:50:59;1.67;;;0.90;;
61254;SDS011;47128;47.530;8.584;2022-08-21T13:53:30;0.88;;;0.75;;
61254;SDS011;47128;47.530;8.584;2022-08-21T13:55:58;2.58;;;0.95;;
61254;SDS011;47128;47.530;8.584;2022-08-21T13:58:27;0.60;;;0.60;;
61254;SDS011;47128;47.530;8.584;2022-08-21T14:00:55;1.00;;;0.77;;
61254;SDS011;47128;47.530;8.584;2022-08-21T14:03:27;0.80;;;0.70;;
61254;SDS011;47128;47.530;8.584;2022-08-21T14:06:02;0.70;;;0.70;;
61254;SDS011;47128;47.530;8.584;2022-08-21T14:08:48;1.20;;;0.77;;
61254;SDS011;47128;47.530;8.584;2022-08-21T14:11:16;2.00;;;0.70;;
61254;SDS011;47128;47.530;8.584;2022-08-21T14:13:43;0.80;;;0.70;;
61254;SDS011;47128;47.530;8.584;2022-08-21T14:16:23;1.02;;;0.75;;
61254;SDS011;47128;47.530;8.584;2022-08-21T14:21:34;0.90;;;0.70;;
61254;SDS011;47128;47.530;8.584;2022-08-21T14:24:09;0.90;;;0.90;;
61254;SDS011;47128;47.530;8.584;2022-08-21T14:26:36;2.50;;;1.13;;
61254;SDS011;47128;47.530;8.584;2022-08-21T14:29:14;0.70;;;0.70;;
61254;SDS011;47128;47.530;8.584;2022-08-21T14:31:41;1.17;;;0.65;;
61254;SDS011;47128;47.530;8.584;2022-08-21T14:34:09;0.60;;;0.50;;
61254;SDS011;47128;47.530;8.584;2022-08-21T14:36:36;1.67;;;0.90;;
61254;SDS011;47128;47.530;8.584;2022-08-21T14:39:02;1.63;;;0.80;;
61254;SDS011;47128;47.530;8.584;2022-08-21T14:41:28;0.68;;;0.68;;
61254;SDS011;47128;47.530;8.584;2022-08-21T14:43:54;1.77;;;0.90;;
61254;SDS011;47128;47.530;8.584;2022-08-21T14:46:23;0.90;;;0.50;;
61254;SDS011;47128;47.530;8.584;2022-08-21T14:48:51;0.63;;;0.60;;
61254;SDS011;47128;47.530;8.584;2022-08-21T14:51:17;0.70;;;0.70;;
61254;SDS011;47128;47.530;8.584;2022-08-21T14:53:43;1.42;;;0.82;;
61254;SDS011;47128;47.530;8.584;2022-08-21T14:56:09;1.58;;;0.60;;
61254;SDS011;47128;47.530;8.584;2022-08-21T14:58:40;0.77;;;0.70;;
61254;SDS011;47128;47.530;8.584;2022-08-21T15:01:13;1.85;;;0.80;;
61254;SDS011;47128;47.530;8.584;2022-08-21T15:03:40;1.63;;;0.90;;
61254;SDS011;47128;47.530;8.584;2022-08-21T15:06:06;1.95;;;0.70;;
61254;SDS011;47128;47.530;8.584;2022-08-21T15:08:33;0.50;;;0.50;;
61254;SDS011;47128;47.530;8.584;2022-08-21T15:10:59;2.67;;;1.10;;
61254;SDS011;47128;47.530;8.584;2022-08-21T15:13:26;1.80;;;0.73;;
61254;SDS011;47128;47.530;8.584;2022-08-21T15:15:52;0.95;;;0.60;;
61254;SDS011;47128;47.530;8.584;2022-08-21T15:18:22;0.50;;;0.50;;
61254;SDS011;47128;47.530;8.584;2022-08-21T15:20:49;4.47;;;0.68;;
61254;SDS011;47128;47.530;8.584;2022-08-21T15:23:15;2.40;;;0.95;;
61254;SDS011;47128;47.530;8.584;2022-08-21T15:25:42;2.72;;;0.80;;
61254;SDS011;47128;47.530;8.584;2022-08-21T15:28:09;2.08;;;0.77;;
61254;SDS011;47128;47.530;8.584;2022-08-21T15:30:36;1.42;;;0.70;;
61254;SDS011;47128;47.530;8.584;2022-08-21T15:33:03;1.00;;;0.90;;
61254;SDS011;47128;47.530;8.584;2022-08-21T15:35:29;1.23;;;0.90;;
61254;SDS011;47128;47.530;8.584;2022-08-21T15:37:55;1.48;;;0.90;;
61254;SDS011;47128;47.530;8.584;2022-08-21T15:40:21;2.10;;;1.00;;
61254;SDS011;47128;47.530;8.584;2022-08-21T15:42:47;1.00;;;0.70;;
61254;SDS011;47128;47.530;8.584;2022-08-21T15:45:13;1.02;;;0.63;;
61254;SDS011;47128;47.530;8.584;2022-08-21T15:47:42;1.67;;;0.90;;
61254;SDS011;47128;47.530;8.584;2022-08-21T15:50:09;1.80;;;0.80;;
61254;SDS011;47128;47.530;8.584;2022-08-21T15:52:35;1.52;;;0.90;;
61254;SDS011;47128;47.530;8.584;2022-08-21T15:55:02;1.15;;;0.90;;
61254;SDS011;47128;47.530;8.584;2022-08-21T15:57:28;2.00;;;1.30;;
61254;SDS011;47128;47.530;8.584;2022-08-21T15:59:56;3.33;;;1.20;;
61254;SDS011;47128;47.530;8.584;2022-08-21T16:02:30;1.20;;;0.73;;
61254;SDS011;47128;47.530;8.584;2022-08-21T16:04:56;1.35;;;0.80;;
61254;SDS011;47128;47.530;8.584;2022-08-21T16:07:22;1.10;;;0.80;;
61254;SDS011;47128;47.530;8.584;2022-08-21T16:09:48;2.67;;;1.10;;
61254;SDS011;47128;47.530;8.584;2022-08-21T16:12:20;1.55;;;1.10;;
61254;SDS011;47128;47.530;8.584;2022-08-21T16:14:50;3.63;;;0.70;;
61254;SDS011;47128;47.530;8.584;2022-08-21T16:17:17;1.38;;;0.80;;
61254;SDS011;47128;47.530;8.584;2022-08-21T16:19:43;0.80;;;0.80;;
61254;SDS011;47128;47.530;8.584;2022-08-21T16:22:08;1.23;;;0.93;;
61254;SDS011;47128;47.530;8.584;2022-08-21T16:24:34;1.25;;;0.90;;